UAE801 OMDB-OEJN
Flight info
| Callsign | UAE801 |
|---|---|
| Flight time | 2h 33m |
| Altitude | 34000 |
| Route | KUTLI L519 ATUDO/N0491F380 M318 GOLGU M550 RIBOT DCT MIGMA/N0493F400 DCT ITRUX Y511 ASMIS T218 IMGUT M309 VEMEM |
| Aircraft | A388/J-SADE2E3FGHIJ3J4J5M1RWXY/LB1D1 |
Departure
| Time | 2026-05-04 23:05 |
|---|---|
| Airport | Dubai International Airport (OMDB) |
Arrival
| Time | 2026-05-05 01:38 |
|---|---|
| Airport | King Abdulaziz International Airport (OEJN) |
| Time | Latitude | Longitude | Altitude | Speed | Heading |
|---|---|---|---|---|---|
| 2026-05-04 22:31 | 25.24192 | 55.37250 | 29 ft | 0 kts | 31° |
| 2026-05-04 22:53 | 25.24173 | 55.37237 | 32 ft | 4 kts | 31° |
| 2026-05-04 22:54 | 25.24152 | 55.37223 | 32 ft | 2 kts | 31° |
| 2026-05-04 22:54 | 25.24134 | 55.37208 | 32 ft | 4 kts | 50° |
| 2026-05-04 22:54 | 25.24125 | 55.37188 | 32 ft | 4 kts | 85° |
| 2026-05-04 22:54 | 25.24129 | 55.37166 | 32 ft | 4 kts | 119° |
| 2026-05-04 22:55 | 25.24142 | 55.37142 | 32 ft | 4 kts | 122° |
| 2026-05-04 22:55 | 25.24154 | 55.37121 | 32 ft | 1 kts | 122° |
| 2026-05-04 22:59 | 25.24148 | 55.37131 | 32 ft | 5 kts | 121° |
| 2026-05-04 22:59 | 25.24119 | 55.37183 | 32 ft | 11 kts | 121° |
| 2026-05-04 22:59 | 25.24074 | 55.37265 | 30 ft | 14 kts | 122° |
| 2026-05-04 23:00 | 25.24024 | 55.37352 | 29 ft | 13 kts | 122° |
| 2026-05-04 23:00 | 25.23975 | 55.37445 | 30 ft | 15 kts | 110° |
| 2026-05-04 23:00 | 25.23977 | 55.37564 | 30 ft | 17 kts | 59° |
| 2026-05-04 23:00 | 25.24073 | 55.37647 | 27 ft | 19 kts | 32° |
| 2026-05-04 23:01 | 25.24185 | 55.37722 | 30 ft | 13 kts | 31° |
| 2026-05-04 23:01 | 25.24264 | 55.37776 | 26 ft | 10 kts | 32° |
| 2026-05-04 23:01 | 25.24336 | 55.37826 | 27 ft | 14 kts | 33° |
| 2026-05-04 23:01 | 25.24427 | 55.37894 | 29 ft | 17 kts | 35° |
| 2026-05-04 23:02 | 25.24531 | 55.37974 | 29 ft | 20 kts | 35° |
| 2026-05-04 23:02 | 25.24610 | 55.38033 | 28 ft | 14 kts | 32° |
| 2026-05-04 23:02 | 25.24673 | 55.38077 | 29 ft | 0 kts | 31° |
| 2026-05-04 23:02 | 25.24687 | 55.38086 | 30 ft | 5 kts | 31° |
| 2026-05-04 23:03 | 25.24735 | 55.38117 | 31 ft | 6 kts | 14° |
| 2026-05-04 23:03 | 25.24768 | 55.38101 | 31 ft | 6 kts | 300° |
| 2026-05-04 23:03 | 25.24788 | 55.38057 | 30 ft | 0 kts | 301° |
| 2026-05-04 23:03 | 25.24789 | 55.38057 | 30 ft | 0 kts | 301° |
| 2026-05-04 23:04 | 25.24866 | 55.37917 | 30 ft | 60 kts | 301° |
| 2026-05-04 23:04 | 25.25227 | 55.37266 | 32 ft | 133 kts | 301° |
| 2026-05-04 23:04 | 25.25799 | 55.36238 | 56 ft | 175 kts | 300° |
| 2026-05-04 23:05 | 25.26460 | 55.35073 | 443 ft | 181 kts | 300° |
| 2026-05-04 23:05 | 25.27143 | 55.33883 | 830 ft | 185 kts | 301° |
| 2026-05-04 23:05 | 25.27824 | 55.32671 | 1272 ft | 186 kts | 301° |
| 2026-05-04 23:05 | 25.28494 | 55.31436 | 1622 ft | 190 kts | 301° |
| 2026-05-04 23:06 | 25.29157 | 55.30107 | 1749 ft | 204 kts | 289° |
| 2026-05-04 23:06 | 25.29206 | 55.28515 | 1839 ft | 217 kts | 255° |
| 2026-05-04 23:06 | 25.28575 | 55.26977 | 1911 ft | 224 kts | 244° |
| 2026-05-04 23:06 | 25.27864 | 55.25375 | 1983 ft | 244 kts | 246° |
| 2026-05-04 23:07 | 25.27124 | 55.23609 | 2336 ft | 261 kts | 247° |
| 2026-05-04 23:07 | 25.26357 | 55.21764 | 2826 ft | 267 kts | 246° |
| 2026-05-04 23:07 | 25.25582 | 55.19908 | 3420 ft | 270 kts | 246° |
| 2026-05-04 23:07 | 25.24778 | 55.17995 | 4116 ft | 274 kts | 247° |
| 2026-05-04 23:08 | 25.23964 | 55.16064 | 4790 ft | 279 kts | 247° |
| 2026-05-04 23:08 | 25.23147 | 55.14128 | 5449 ft | 284 kts | 248° |
| 2026-05-04 23:08 | 25.22303 | 55.12128 | 6106 ft | 290 kts | 248° |
| 2026-05-04 23:08 | 25.21443 | 55.10093 | 6786 ft | 294 kts | 248° |
| 2026-05-04 23:09 | 25.20576 | 55.08045 | 7534 ft | 295 kts | 247° |
| 2026-05-04 23:09 | 25.19701 | 55.05980 | 8242 ft | 298 kts | 247° |
| 2026-05-04 23:09 | 25.18822 | 55.03904 | 8991 ft | 300 kts | 247° |
| 2026-05-04 23:09 | 25.17932 | 55.01804 | 9723 ft | 303 kts | 247° |
| 2026-05-04 23:10 | 25.17034 | 54.99683 | 10362 ft | 308 kts | 247° |
| 2026-05-04 23:10 | 25.16100 | 54.97476 | 10591 ft | 327 kts | 247° |
| 2026-05-04 23:10 | 25.14930 | 54.95237 | 10767 ft | 349 kts | 231° |
| 2026-05-04 23:10 | 25.13025 | 54.93517 | 11246 ft | 361 kts | 209° |
| 2026-05-04 23:11 | 25.10660 | 54.92659 | 11961 ft | 365 kts | 189° |
| 2026-05-04 23:11 | 25.08119 | 54.92472 | 12604 ft | 367 kts | 189° |
| 2026-05-04 23:11 | 25.05678 | 54.91675 | 13295 ft | 366 kts | 204° |
| 2026-05-04 23:11 | 25.03335 | 54.90546 | 13935 ft | 367 kts | 206° |
| 2026-05-04 23:12 | 25.01004 | 54.89383 | 14577 ft | 369 kts | 206° |
| 2026-05-04 23:12 | 24.98653 | 54.88240 | 15204 ft | 370 kts | 205° |
| 2026-05-04 23:12 | 24.96274 | 54.87119 | 15832 ft | 372 kts | 205° |
| 2026-05-04 23:12 | 24.93877 | 54.86011 | 16454 ft | 374 kts | 205° |
| 2026-05-04 23:13 | 24.91468 | 54.84909 | 17074 ft | 376 kts | 205° |
| 2026-05-04 23:13 | 24.89119 | 54.83836 | 17651 ft | 378 kts | 205° |
| 2026-05-04 23:13 | 24.86631 | 54.82702 | 18237 ft | 381 kts | 205° |
| 2026-05-04 23:13 | 24.84171 | 54.81580 | 18713 ft | 384 kts | 205° |
| 2026-05-04 23:14 | 24.81691 | 54.80449 | 19157 ft | 388 kts | 204° |
| 2026-05-04 23:14 | 24.79193 | 54.79311 | 19641 ft | 390 kts | 204° |
| 2026-05-04 23:14 | 24.76671 | 54.78162 | 20097 ft | 393 kts | 205° |
| 2026-05-04 23:14 | 24.74132 | 54.77005 | 20567 ft | 396 kts | 205° |
| 2026-05-04 23:15 | 24.71576 | 54.75842 | 21014 ft | 400 kts | 205° |
| 2026-05-04 23:15 | 24.68996 | 54.74668 | 21479 ft | 402 kts | 205° |
| 2026-05-04 23:15 | 24.66400 | 54.73487 | 21936 ft | 405 kts | 205° |
| 2026-05-04 23:15 | 24.63778 | 54.72295 | 22376 ft | 409 kts | 205° |
| 2026-05-04 23:16 | 24.61140 | 54.71096 | 22807 ft | 412 kts | 205° |
| 2026-05-04 23:16 | 24.58484 | 54.69890 | 23240 ft | 415 kts | 205° |
| 2026-05-04 23:16 | 24.55805 | 54.68673 | 23627 ft | 417 kts | 205° |
| 2026-05-04 23:16 | 24.53114 | 54.67452 | 23995 ft | 420 kts | 204° |
| 2026-05-04 23:17 | 24.50406 | 54.66224 | 24390 ft | 422 kts | 205° |
| 2026-05-04 23:17 | 24.47725 | 54.65009 | 24781 ft | 423 kts | 205° |
| 2026-05-04 23:17 | 24.44963 | 54.63757 | 25180 ft | 425 kts | 205° |
| 2026-05-04 23:17 | 24.42222 | 54.62515 | 25578 ft | 427 kts | 205° |
| 2026-05-04 23:18 | 24.39463 | 54.61266 | 25983 ft | 429 kts | 205° |
| 2026-05-04 23:18 | 24.36728 | 54.60029 | 26386 ft | 431 kts | 205° |
| 2026-05-04 23:18 | 24.33943 | 54.58769 | 26809 ft | 433 kts | 205° |
| 2026-05-04 23:18 | 24.31151 | 54.57506 | 27248 ft | 436 kts | 205° |
| 2026-05-04 23:19 | 24.28343 | 54.56231 | 27690 ft | 437 kts | 207° |
| 2026-05-04 23:19 | 24.25707 | 54.54568 | 28130 ft | 435 kts | 219° |
| 2026-05-04 23:19 | 24.23473 | 54.52346 | 28576 ft | 435 kts | 231° |
| 2026-05-04 23:19 | 24.21708 | 54.49656 | 29071 ft | 435 kts | 242° |
| 2026-05-04 23:20 | 24.20241 | 54.46746 | 29537 ft | 438 kts | 242° |
| 2026-05-04 23:20 | 24.18750 | 54.43826 | 30015 ft | 440 kts | 242° |
| 2026-05-04 23:20 | 24.17263 | 54.40939 | 30465 ft | 442 kts | 242° |
| 2026-05-04 23:20 | 24.15744 | 54.37991 | 30891 ft | 445 kts | 242° |
| 2026-05-04 23:21 | 24.14218 | 54.35029 | 31328 ft | 447 kts | 242° |
| 2026-05-04 23:21 | 24.12683 | 54.32050 | 31705 ft | 451 kts | 242° |
| 2026-05-04 23:21 | 24.09591 | 54.26053 | 31747 ft | 451 kts | 242° |
| 2026-05-04 23:22 | 24.06533 | 54.20126 | 31747 ft | 450 kts | 242° |
| 2026-05-04 23:22 | 24.03450 | 54.14159 | 31746 ft | 450 kts | 242° |
| 2026-05-04 23:23 | 24.00369 | 54.08202 | 31747 ft | 450 kts | 242° |
| 2026-05-04 23:23 | 23.97260 | 54.02253 | 31747 ft | 450 kts | 241° |
| 2026-05-04 23:24 | 23.94135 | 53.96361 | 31749 ft | 450 kts | 241° |
| 2026-05-04 23:24 | 23.90998 | 53.90442 | 31750 ft | 450 kts | 241° |
| 2026-05-04 23:25 | 23.87858 | 53.84518 | 31752 ft | 450 kts | 241° |
| 2026-05-04 23:25 | 23.84721 | 53.78604 | 31752 ft | 450 kts | 241° |
| 2026-05-04 23:26 | 23.81582 | 53.72693 | 31753 ft | 450 kts | 241° |
| 2026-05-04 23:26 | 23.78440 | 53.66783 | 31755 ft | 450 kts | 241° |
| 2026-05-04 23:27 | 23.75288 | 53.60861 | 31755 ft | 450 kts | 241° |
| 2026-05-04 23:27 | 23.72139 | 53.54954 | 31757 ft | 451 kts | 241° |
| 2026-05-04 23:28 | 23.68982 | 53.49027 | 31760 ft | 451 kts | 241° |
| 2026-05-04 23:28 | 23.65865 | 53.43136 | 31762 ft | 451 kts | 241° |
| 2026-05-04 23:29 | 23.62728 | 53.37215 | 31762 ft | 451 kts | 241° |
| 2026-05-04 23:29 | 23.59582 | 53.31290 | 31768 ft | 451 kts | 241° |
| 2026-05-04 23:30 | 23.56434 | 53.25370 | 31768 ft | 451 kts | 241° |
| 2026-05-04 23:30 | 23.53293 | 53.19470 | 31772 ft | 450 kts | 241° |
| 2026-05-04 23:31 | 23.50147 | 53.13565 | 31772 ft | 450 kts | 241° |
| 2026-05-04 23:31 | 23.47000 | 53.07667 | 31772 ft | 450 kts | 241° |
| 2026-05-04 23:32 | 23.43846 | 53.01764 | 31771 ft | 450 kts | 241° |
| 2026-05-04 23:32 | 23.40696 | 52.95874 | 31777 ft | 450 kts | 241° |
| 2026-05-04 23:33 | 23.37636 | 52.89976 | 31774 ft | 450 kts | 242° |
| 2026-05-04 23:33 | 23.34602 | 52.84012 | 31775 ft | 450 kts | 242° |
| 2026-05-04 23:34 | 23.31553 | 52.78061 | 31776 ft | 450 kts | 242° |
| 2026-05-04 23:34 | 23.29013 | 52.73122 | 31777 ft | 450 kts | 242° |
| 2026-05-04 23:35 | 23.25949 | 52.67174 | 31776 ft | 450 kts | 242° |
| 2026-05-04 23:35 | 23.22888 | 52.61236 | 31776 ft | 450 kts | 242° |
| 2026-05-04 23:36 | 23.19823 | 52.55298 | 31777 ft | 450 kts | 242° |
| 2026-05-04 23:36 | 23.17190 | 52.49189 | 31776 ft | 449 kts | 251° |
| 2026-05-04 23:37 | 23.15187 | 52.42765 | 31778 ft | 449 kts | 251° |
| 2026-05-04 23:37 | 23.13148 | 52.36345 | 31778 ft | 449 kts | 251° |
| 2026-05-04 23:38 | 23.11111 | 52.29933 | 31776 ft | 449 kts | 251° |
| 2026-05-04 23:38 | 23.09070 | 52.23512 | 31781 ft | 448 kts | 251° |
| 2026-05-04 23:39 | 23.07035 | 52.17116 | 31777 ft | 449 kts | 251° |
| 2026-05-04 23:39 | 23.04993 | 52.10711 | 31779 ft | 449 kts | 251° |
| 2026-05-04 23:40 | 23.02947 | 52.04306 | 31781 ft | 449 kts | 251° |
| 2026-05-04 23:40 | 23.00900 | 51.97903 | 31780 ft | 449 kts | 251° |
| 2026-05-04 23:41 | 22.98864 | 51.91545 | 31777 ft | 449 kts | 251° |
| 2026-05-04 23:41 | 22.96812 | 51.85150 | 31781 ft | 449 kts | 251° |
| 2026-05-04 23:42 | 22.94755 | 51.78748 | 31781 ft | 449 kts | 251° |
| 2026-05-04 23:42 | 22.92696 | 51.72349 | 31783 ft | 449 kts | 251° |
| 2026-05-04 23:43 | 22.90632 | 51.65945 | 31781 ft | 449 kts | 251° |
| 2026-05-04 23:43 | 22.88579 | 51.59588 | 31780 ft | 449 kts | 251° |
| 2026-05-04 23:44 | 22.86501 | 51.53159 | 31782 ft | 449 kts | 251° |
| 2026-05-04 23:44 | 22.84789 | 51.46698 | 31783 ft | 449 kts | 259° |
| 2026-05-04 23:45 | 22.84253 | 51.39941 | 31778 ft | 450 kts | 269° |
| 2026-05-04 23:45 | 22.84232 | 51.33153 | 31782 ft | 450 kts | 268° |
| 2026-05-04 23:46 | 22.84181 | 51.26361 | 31780 ft | 450 kts | 268° |
| 2026-05-04 23:46 | 22.84134 | 51.19573 | 31784 ft | 450 kts | 268° |
| 2026-05-04 23:47 | 22.84085 | 51.12789 | 31781 ft | 450 kts | 268° |
| 2026-05-04 23:47 | 22.84032 | 51.06032 | 31782 ft | 450 kts | 268° |
| 2026-05-04 23:48 | 22.83977 | 50.99241 | 31782 ft | 450 kts | 268° |
| 2026-05-04 23:48 | 22.83918 | 50.92454 | 31779 ft | 450 kts | 268° |
| 2026-05-04 23:49 | 22.83857 | 50.85665 | 31780 ft | 450 kts | 268° |
| 2026-05-04 23:49 | 22.83792 | 50.78878 | 31780 ft | 450 kts | 268° |
| 2026-05-04 23:50 | 22.83725 | 50.72089 | 31783 ft | 450 kts | 268° |
| 2026-05-04 23:50 | 22.83655 | 50.65353 | 31785 ft | 450 kts | 268° |
| 2026-05-04 23:51 | 22.83582 | 50.58550 | 31788 ft | 451 kts | 268° |
| 2026-05-04 23:51 | 22.83507 | 50.51753 | 31787 ft | 451 kts | 268° |
| 2026-05-04 23:52 | 22.83428 | 50.44941 | 31785 ft | 451 kts | 268° |
| 2026-05-04 23:52 | 22.83346 | 50.38152 | 31781 ft | 452 kts | 268° |
| 2026-05-04 23:53 | 22.83262 | 50.31358 | 31785 ft | 449 kts | 268° |
| 2026-05-04 23:53 | 22.83175 | 50.24630 | 31786 ft | 449 kts | 268° |
| 2026-05-04 23:54 | 22.83085 | 50.17855 | 31781 ft | 450 kts | 268° |
| 2026-05-04 23:54 | 22.82992 | 50.11070 | 31783 ft | 450 kts | 268° |
| 2026-05-04 23:55 | 22.82896 | 50.04281 | 31781 ft | 450 kts | 268° |
| 2026-05-04 23:56 | 22.82747 | 49.94101 | 31782 ft | 450 kts | 268° |
| 2026-05-04 23:56 | 22.82644 | 49.87356 | 31782 ft | 450 kts | 268° |
| 2026-05-04 23:57 | 22.82538 | 49.80571 | 31782 ft | 450 kts | 268° |
| 2026-05-04 23:57 | 22.82429 | 49.73781 | 31780 ft | 450 kts | 268° |
| 2026-05-04 23:58 | 22.82317 | 49.66984 | 31782 ft | 450 kts | 268° |
| 2026-05-04 23:58 | 22.82203 | 49.60199 | 31784 ft | 450 kts | 268° |
| 2026-05-04 23:59 | 22.82085 | 49.53413 | 31783 ft | 450 kts | 268° |
| 2026-05-04 23:59 | 22.81966 | 49.46669 | 31784 ft | 447 kts | 268° |
| 2026-05-05 00:00 | 22.81844 | 49.39939 | 31783 ft | 447 kts | 268° |
| 2026-05-05 00:00 | 22.81718 | 49.33202 | 31788 ft | 447 kts | 268° |
| 2026-05-05 00:01 | 22.81591 | 49.26467 | 31788 ft | 447 kts | 267° |
| 2026-05-05 00:01 | 22.81460 | 49.19720 | 31787 ft | 447 kts | 267° |
| 2026-05-05 00:02 | 22.81326 | 49.12982 | 31789 ft | 447 kts | 267° |
| 2026-05-05 00:02 | 22.81189 | 49.06248 | 31788 ft | 447 kts | 267° |
| 2026-05-05 00:03 | 22.81051 | 48.99554 | 31791 ft | 447 kts | 267° |
| 2026-05-05 00:03 | 22.80909 | 48.92823 | 31790 ft | 447 kts | 267° |
| 2026-05-05 00:04 | 22.80764 | 48.86096 | 31789 ft | 447 kts | 267° |
| 2026-05-05 00:04 | 22.80617 | 48.79365 | 31795 ft | 447 kts | 267° |
| 2026-05-05 00:05 | 22.80466 | 48.72630 | 31794 ft | 447 kts | 267° |
| 2026-05-05 00:05 | 22.80313 | 48.65906 | 31794 ft | 447 kts | 267° |
| 2026-05-05 00:06 | 22.80158 | 48.59194 | 31795 ft | 445 kts | 267° |
| 2026-05-05 00:06 | 22.80000 | 48.52535 | 31796 ft | 445 kts | 267° |
| 2026-05-05 00:07 | 22.79839 | 48.45833 | 31791 ft | 445 kts | 267° |
| 2026-05-05 00:07 | 22.79675 | 48.39112 | 31799 ft | 445 kts | 267° |
| 2026-05-05 00:08 | 22.79508 | 48.32393 | 31796 ft | 445 kts | 267° |
| 2026-05-05 00:08 | 22.79338 | 48.25689 | 31792 ft | 445 kts | 267° |
| 2026-05-05 00:09 | 22.79166 | 48.18980 | 31802 ft | 446 kts | 267° |
| 2026-05-05 00:09 | 22.78990 | 48.12253 | 31801 ft | 446 kts | 267° |
| 2026-05-05 00:10 | 22.78813 | 48.05577 | 31802 ft | 446 kts | 267° |
| 2026-05-05 00:10 | 22.78632 | 47.98860 | 31802 ft | 446 kts | 267° |
| 2026-05-05 00:11 | 22.78447 | 47.92121 | 31807 ft | 447 kts | 267° |
| 2026-05-05 00:11 | 22.78260 | 47.85387 | 31808 ft | 447 kts | 267° |
| 2026-05-05 00:12 | 22.78072 | 47.78702 | 31807 ft | 444 kts | 267° |
| 2026-05-05 00:12 | 22.77879 | 47.71987 | 31808 ft | 446 kts | 267° |
| 2026-05-05 00:13 | 22.77684 | 47.65271 | 31815 ft | 445 kts | 267° |
| 2026-05-05 00:13 | 22.77486 | 47.58559 | 31825 ft | 445 kts | 267° |
| 2026-05-05 00:14 | 22.77286 | 47.51876 | 31824 ft | 446 kts | 266° |
| 2026-05-05 00:14 | 22.77082 | 47.45154 | 31829 ft | 446 kts | 266° |
| 2026-05-05 00:15 | 22.76876 | 47.38425 | 31826 ft | 446 kts | 266° |
| 2026-05-05 00:15 | 22.76666 | 47.31691 | 31838 ft | 448 kts | 266° |
| 2026-05-05 00:16 | 22.76457 | 47.24992 | 31840 ft | 447 kts | 266° |
| 2026-05-05 00:16 | 22.76253 | 47.18257 | 31840 ft | 448 kts | 268° |
| 2026-05-05 00:17 | 22.76695 | 47.11501 | 31849 ft | 449 kts | 273° |
| 2026-05-05 00:17 | 22.77246 | 47.04762 | 31857 ft | 449 kts | 273° |
| 2026-05-05 00:18 | 22.77779 | 46.98040 | 31857 ft | 448 kts | 273° |
| 2026-05-05 00:18 | 22.78305 | 46.91325 | 31859 ft | 447 kts | 272° |
| 2026-05-05 00:19 | 22.78828 | 46.84619 | 31853 ft | 447 kts | 272° |
| 2026-05-05 00:19 | 22.79350 | 46.77897 | 31859 ft | 447 kts | 272° |
| 2026-05-05 00:20 | 22.79868 | 46.71188 | 31861 ft | 447 kts | 272° |
| 2026-05-05 00:20 | 22.80380 | 46.64520 | 31859 ft | 447 kts | 272° |
| 2026-05-05 00:21 | 22.80893 | 46.57809 | 31867 ft | 447 kts | 272° |
| 2026-05-05 00:21 | 22.81403 | 46.51096 | 31867 ft | 446 kts | 272° |
| 2026-05-05 00:22 | 22.81908 | 46.44403 | 31869 ft | 444 kts | 272° |
| 2026-05-05 00:22 | 22.82408 | 46.37736 | 31868 ft | 444 kts | 272° |
| 2026-05-05 00:23 | 22.82902 | 46.31068 | 31871 ft | 443 kts | 272° |
| 2026-05-05 00:23 | 22.83391 | 46.24436 | 31869 ft | 444 kts | 272° |
| 2026-05-05 00:24 | 22.83880 | 46.17772 | 31869 ft | 443 kts | 272° |
| 2026-05-05 00:24 | 22.84366 | 46.11112 | 31865 ft | 443 kts | 272° |
| 2026-05-05 00:25 | 22.84849 | 46.04441 | 31853 ft | 443 kts | 272° |
| 2026-05-05 00:25 | 22.85329 | 45.97783 | 31857 ft | 443 kts | 272° |
| 2026-05-05 00:26 | 22.85803 | 45.91172 | 31854 ft | 441 kts | 272° |
| 2026-05-05 00:26 | 22.86275 | 45.84555 | 31852 ft | 440 kts | 272° |
| 2026-05-05 00:27 | 22.86744 | 45.77926 | 31847 ft | 440 kts | 272° |
| 2026-05-05 00:27 | 22.87210 | 45.71306 | 31843 ft | 440 kts | 272° |
| 2026-05-05 00:28 | 22.87594 | 45.65810 | 31856 ft | 440 kts | 272° |
| 2026-05-05 00:28 | 22.88055 | 45.59190 | 31860 ft | 440 kts | 272° |
| 2026-05-05 00:29 | 22.88513 | 45.52581 | 31850 ft | 440 kts | 272° |
| 2026-05-05 00:29 | 22.88968 | 45.45966 | 31862 ft | 440 kts | 272° |
| 2026-05-05 00:30 | 22.89420 | 45.39350 | 31845 ft | 440 kts | 272° |
| 2026-05-05 00:30 | 22.89869 | 45.32765 | 31857 ft | 435 kts | 271° |
| 2026-05-05 00:31 | 22.90310 | 45.26214 | 31858 ft | 436 kts | 271° |
| 2026-05-05 00:31 | 22.90750 | 45.19659 | 31858 ft | 436 kts | 271° |
| 2026-05-05 00:32 | 22.91188 | 45.13096 | 31872 ft | 436 kts | 271° |
| 2026-05-05 00:32 | 22.91621 | 45.06581 | 31862 ft | 436 kts | 271° |
| 2026-05-05 00:33 | 22.92052 | 45.00021 | 31860 ft | 436 kts | 271° |
| 2026-05-05 00:33 | 22.92480 | 44.93460 | 31864 ft | 436 kts | 271° |
| 2026-05-05 00:34 | 22.92906 | 44.86907 | 31864 ft | 436 kts | 271° |
| 2026-05-05 00:34 | 22.93330 | 44.80355 | 31865 ft | 436 kts | 271° |
| 2026-05-05 00:35 | 22.93750 | 44.73794 | 31862 ft | 436 kts | 271° |
| 2026-05-05 00:35 | 22.94135 | 44.67236 | 31866 ft | 435 kts | 269° |
| 2026-05-05 00:36 | 22.93898 | 44.60693 | 31876 ft | 434 kts | 265° |
| 2026-05-05 00:36 | 22.93616 | 44.54173 | 31867 ft | 432 kts | 265° |
| 2026-05-05 00:37 | 22.93337 | 44.47657 | 31868 ft | 432 kts | 265° |
| 2026-05-05 00:37 | 22.93051 | 44.41148 | 31881 ft | 432 kts | 265° |
| 2026-05-05 00:38 | 22.92764 | 44.34701 | 31875 ft | 431 kts | 265° |
| 2026-05-05 00:38 | 22.92472 | 44.28208 | 31876 ft | 431 kts | 265° |
| 2026-05-05 00:39 | 22.92178 | 44.21720 | 31882 ft | 431 kts | 265° |
| 2026-05-05 00:39 | 22.91881 | 44.15241 | 31878 ft | 430 kts | 265° |
| 2026-05-05 00:40 | 22.91581 | 44.08752 | 31884 ft | 430 kts | 265° |
| 2026-05-05 00:40 | 22.91285 | 44.02423 | 31900 ft | 430 kts | 265° |
| 2026-05-05 00:41 | 22.90982 | 43.95970 | 31898 ft | 428 kts | 265° |
| 2026-05-05 00:41 | 22.90677 | 43.89554 | 31905 ft | 430 kts | 265° |
| 2026-05-05 00:41 | 22.90520 | 43.86297 | 32044 ft | 434 kts | 265° |
| 2026-05-05 00:42 | 22.90362 | 43.83020 | 32612 ft | 434 kts | 265° |
| 2026-05-05 00:42 | 22.90205 | 43.79747 | 33138 ft | 435 kts | 265° |
| 2026-05-05 00:42 | 22.90045 | 43.76456 | 33568 ft | 438 kts | 265° |
| 2026-05-05 00:42 | 22.89885 | 43.73149 | 33883 ft | 442 kts | 265° |
| 2026-05-05 00:43 | 22.89721 | 43.69799 | 33921 ft | 448 kts | 265° |
| 2026-05-05 00:43 | 22.89389 | 43.63031 | 33936 ft | 450 kts | 265° |
| 2026-05-05 00:44 | 22.89055 | 43.56269 | 33938 ft | 448 kts | 265° |
| 2026-05-05 00:44 | 22.88718 | 43.49526 | 33942 ft | 448 kts | 265° |
| 2026-05-05 00:45 | 22.88379 | 43.42816 | 33960 ft | 448 kts | 265° |
| 2026-05-05 00:45 | 22.88036 | 43.36060 | 33956 ft | 448 kts | 265° |
| 2026-05-05 00:46 | 22.87693 | 43.29372 | 33946 ft | 448 kts | 265° |
| 2026-05-05 00:46 | 22.87494 | 43.25507 | 33957 ft | 448 kts | 265° |
| 2026-05-05 00:47 | 22.87144 | 43.18755 | 33965 ft | 448 kts | 265° |
| 2026-05-05 00:47 | 22.86791 | 43.12009 | 33969 ft | 448 kts | 265° |
| 2026-05-05 00:48 | 22.86437 | 43.05287 | 33977 ft | 448 kts | 264° |
| 2026-05-05 00:48 | 22.86079 | 42.98538 | 33985 ft | 448 kts | 264° |
| 2026-05-05 00:49 | 22.85718 | 42.91789 | 33977 ft | 448 kts | 264° |
| 2026-05-05 00:49 | 22.85354 | 42.85046 | 33985 ft | 448 kts | 264° |
| 2026-05-05 00:50 | 22.84987 | 42.78316 | 33983 ft | 447 kts | 264° |
| 2026-05-05 00:50 | 22.84621 | 42.71623 | 33987 ft | 447 kts | 264° |
| 2026-05-05 00:51 | 22.84249 | 42.64888 | 33959 ft | 448 kts | 265° |
| 2026-05-05 00:51 | 22.83874 | 42.58145 | 33983 ft | 448 kts | 264° |
| 2026-05-05 00:52 | 22.83495 | 42.51390 | 33991 ft | 448 kts | 264° |
| 2026-05-05 00:52 | 22.83115 | 42.44671 | 33994 ft | 448 kts | 264° |
| 2026-05-05 00:53 | 22.82732 | 42.37929 | 34015 ft | 448 kts | 264° |
| 2026-05-05 00:53 | 22.82345 | 42.31195 | 34024 ft | 447 kts | 264° |
| 2026-05-05 00:54 | 22.81957 | 42.24465 | 34023 ft | 447 kts | 264° |
| 2026-05-05 00:54 | 22.81566 | 42.17748 | 34043 ft | 446 kts | 264° |
| 2026-05-05 00:55 | 22.81173 | 42.11040 | 34043 ft | 446 kts | 264° |
| 2026-05-05 00:55 | 22.80777 | 42.04341 | 34009 ft | 445 kts | 264° |
| 2026-05-05 00:56 | 22.80379 | 41.97641 | 34018 ft | 445 kts | 264° |
| 2026-05-05 00:56 | 22.79982 | 41.90975 | 34021 ft | 445 kts | 264° |
| 2026-05-05 00:57 | 22.79376 | 41.84291 | 34017 ft | 444 kts | 262° |
| 2026-05-05 00:57 | 22.78750 | 41.77618 | 34019 ft | 444 kts | 262° |
| 2026-05-05 00:58 | 22.78120 | 41.70957 | 34037 ft | 444 kts | 262° |
| 2026-05-05 00:58 | 22.77482 | 41.64301 | 34033 ft | 444 kts | 262° |
| 2026-05-05 00:59 | 22.76843 | 41.57694 | 34034 ft | 443 kts | 262° |
| 2026-05-05 00:59 | 22.76199 | 41.51054 | 34051 ft | 443 kts | 262° |
| 2026-05-05 01:00 | 22.75554 | 41.44430 | 34014 ft | 442 kts | 262° |
| 2026-05-05 01:00 | 22.74905 | 41.37794 | 34027 ft | 442 kts | 262° |
| 2026-05-05 01:01 | 22.73920 | 41.31225 | 34042 ft | 441 kts | 255° |
| 2026-05-05 01:01 | 22.71971 | 41.24923 | 34040 ft | 441 kts | 248° |
| 2026-05-05 01:02 | 22.69701 | 41.18760 | 34024 ft | 441 kts | 249° |
| 2026-05-05 01:02 | 22.67450 | 41.12591 | 34037 ft | 441 kts | 249° |
| 2026-05-05 01:03 | 22.65206 | 41.06467 | 34034 ft | 440 kts | 249° |
| 2026-05-05 01:03 | 22.62944 | 41.00313 | 34039 ft | 440 kts | 249° |
| 2026-05-05 01:04 | 22.60674 | 40.94147 | 34035 ft | 440 kts | 249° |
| 2026-05-05 01:04 | 22.57266 | 40.84904 | 34049 ft | 440 kts | 249° |
| 2026-05-05 01:05 | 22.55008 | 40.78789 | 34054 ft | 440 kts | 249° |
| 2026-05-05 01:05 | 22.52732 | 40.72635 | 34053 ft | 440 kts | 248° |
| 2026-05-05 01:06 | 22.50454 | 40.66483 | 34031 ft | 441 kts | 248° |
| 2026-05-05 01:06 | 22.48172 | 40.60326 | 34031 ft | 442 kts | 248° |
| 2026-05-05 01:07 | 22.45883 | 40.54162 | 34056 ft | 442 kts | 248° |
| 2026-05-05 01:07 | 22.43586 | 40.47985 | 34054 ft | 443 kts | 248° |
| 2026-05-05 01:08 | 22.41299 | 40.41841 | 34068 ft | 443 kts | 248° |
| 2026-05-05 01:08 | 22.38994 | 40.35658 | 34071 ft | 443 kts | 248° |
| 2026-05-05 01:09 | 22.36692 | 40.29493 | 34054 ft | 443 kts | 248° |
| 2026-05-05 01:09 | 22.34383 | 40.23316 | 34064 ft | 443 kts | 248° |
| 2026-05-05 01:10 | 22.32072 | 40.17141 | 34025 ft | 440 kts | 248° |
| 2026-05-05 01:10 | 22.30939 | 40.14117 | 33812 ft | 431 kts | 248° |
| 2026-05-05 01:10 | 22.29822 | 40.11134 | 33536 ft | 426 kts | 248° |
| 2026-05-05 01:11 | 22.28712 | 40.08175 | 33284 ft | 425 kts | 248° |
| 2026-05-05 01:11 | 22.27615 | 40.05253 | 33035 ft | 424 kts | 248° |
| 2026-05-05 01:11 | 22.26391 | 40.02368 | 32778 ft | 422 kts | 243° |
| 2026-05-05 01:11 | 22.24920 | 39.99627 | 32532 ft | 421 kts | 239° |
| 2026-05-05 01:12 | 22.23296 | 39.97003 | 32289 ft | 420 kts | 238° |
| 2026-05-05 01:12 | 22.21684 | 39.94376 | 32019 ft | 420 kts | 238° |
| 2026-05-05 01:12 | 22.20077 | 39.91740 | 31759 ft | 420 kts | 238° |
| 2026-05-05 01:12 | 22.18478 | 39.89116 | 31529 ft | 418 kts | 238° |
| 2026-05-05 01:13 | 22.16883 | 39.86501 | 31285 ft | 416 kts | 238° |
| 2026-05-05 01:13 | 22.15290 | 39.83894 | 31042 ft | 415 kts | 238° |
| 2026-05-05 01:13 | 22.13705 | 39.81304 | 30800 ft | 414 kts | 238° |
| 2026-05-05 01:13 | 22.12122 | 39.78719 | 30569 ft | 412 kts | 238° |
| 2026-05-05 01:14 | 22.10544 | 39.76142 | 30221 ft | 411 kts | 238° |
| 2026-05-05 01:14 | 22.08963 | 39.73559 | 29444 ft | 413 kts | 238° |
| 2026-05-05 01:14 | 22.07410 | 39.71026 | 28622 ft | 408 kts | 238° |
| 2026-05-05 01:14 | 22.05856 | 39.68496 | 28229 ft | 400 kts | 238° |
| 2026-05-05 01:15 | 22.04320 | 39.65995 | 27882 ft | 401 kts | 238° |
| 2026-05-05 01:15 | 22.02774 | 39.63475 | 27317 ft | 401 kts | 238° |
| 2026-05-05 01:15 | 22.01243 | 39.60980 | 26783 ft | 398 kts | 237° |
| 2026-05-05 01:15 | 21.99739 | 39.58533 | 26235 ft | 394 kts | 237° |
| 2026-05-05 01:16 | 21.98216 | 39.56055 | 25683 ft | 389 kts | 237° |
| 2026-05-05 01:16 | 21.96746 | 39.53665 | 25169 ft | 386 kts | 237° |
| 2026-05-05 01:16 | 21.95265 | 39.51257 | 24648 ft | 383 kts | 237° |
| 2026-05-05 01:16 | 21.93896 | 39.48811 | 24117 ft | 380 kts | 243° |
| 2026-05-05 01:17 | 21.92759 | 39.46255 | 23611 ft | 378 kts | 245° |
| 2026-05-05 01:17 | 21.91636 | 39.43704 | 23029 ft | 376 kts | 244° |
| 2026-05-05 01:17 | 21.90512 | 39.41178 | 22534 ft | 372 kts | 244° |
| 2026-05-05 01:17 | 21.89397 | 39.38679 | 21990 ft | 368 kts | 244° |
| 2026-05-05 01:18 | 21.88288 | 39.36198 | 21483 ft | 366 kts | 244° |
| 2026-05-05 01:18 | 21.87202 | 39.33767 | 20991 ft | 363 kts | 244° |
| 2026-05-05 01:18 | 21.86120 | 39.31346 | 20475 ft | 361 kts | 244° |
| 2026-05-05 01:18 | 21.85042 | 39.28934 | 19973 ft | 359 kts | 244° |
| 2026-05-05 01:19 | 21.84001 | 39.26609 | 19478 ft | 358 kts | 243° |
| 2026-05-05 01:19 | 21.82926 | 39.24212 | 18985 ft | 356 kts | 243° |
| 2026-05-05 01:19 | 21.81721 | 39.21891 | 18483 ft | 355 kts | 236° |
| 2026-05-05 01:19 | 21.81542 | 39.21602 | 18416 ft | 355 kts | 235° |
| 2026-05-05 01:20 | 21.80815 | 39.20524 | 18145 ft | 354 kts | 231° |
| 2026-05-05 01:20 | 21.79211 | 39.18520 | 17600 ft | 352 kts | 228° |
| 2026-05-05 01:20 | 21.77597 | 39.16556 | 17097 ft | 348 kts | 229° |
| 2026-05-05 01:20 | 21.76643 | 39.15381 | 16795 ft | 347 kts | 229° |
| 2026-05-05 01:21 | 21.75065 | 39.13433 | 16305 ft | 344 kts | 229° |
| 2026-05-05 01:21 | 21.73500 | 39.11499 | 15807 ft | 341 kts | 229° |
| 2026-05-05 01:21 | 21.71944 | 39.09580 | 15313 ft | 339 kts | 229° |
| 2026-05-05 01:21 | 21.70410 | 39.07691 | 14823 ft | 336 kts | 228° |
| 2026-05-05 01:22 | 21.68821 | 39.05861 | 14378 ft | 335 kts | 220° |
| 2026-05-05 01:22 | 21.66799 | 39.04560 | 14034 ft | 347 kts | 202° |
| 2026-05-05 01:22 | 21.64434 | 39.04042 | 13514 ft | 357 kts | 182° |
| 2026-05-05 01:22 | 21.61978 | 39.04437 | 12973 ft | 356 kts | 163° |
| 2026-05-05 01:23 | 21.59687 | 39.05358 | 12517 ft | 350 kts | 162° |
| 2026-05-05 01:23 | 21.57418 | 39.06287 | 11988 ft | 346 kts | 162° |
| 2026-05-05 01:23 | 21.55171 | 39.07189 | 11493 ft | 343 kts | 162° |
| 2026-05-05 01:23 | 21.52933 | 39.08075 | 10999 ft | 340 kts | 161° |
| 2026-05-05 01:24 | 21.50716 | 39.08953 | 10517 ft | 338 kts | 161° |
| 2026-05-05 01:24 | 21.48533 | 39.09824 | 10284 ft | 328 kts | 160° |
| 2026-05-05 01:24 | 21.46463 | 39.10649 | 10158 ft | 315 kts | 161° |
| 2026-05-05 01:24 | 21.44432 | 39.11455 | 9994 ft | 310 kts | 161° |
| 2026-05-05 01:25 | 21.42418 | 39.12254 | 10003 ft | 309 kts | 161° |
| 2026-05-05 01:25 | 21.40397 | 39.13055 | 9871 ft | 309 kts | 161° |
| 2026-05-05 01:25 | 21.38361 | 39.13860 | 9559 ft | 311 kts | 161° |
| 2026-05-05 01:25 | 21.36330 | 39.14662 | 9098 ft | 311 kts | 161° |
| 2026-05-05 01:26 | 21.34304 | 39.15463 | 8561 ft | 310 kts | 160° |
| 2026-05-05 01:26 | 21.32309 | 39.16253 | 8346 ft | 298 kts | 160° |
| 2026-05-05 01:26 | 21.30388 | 39.17012 | 8109 ft | 292 kts | 160° |
| 2026-05-05 01:26 | 21.28498 | 39.17756 | 7856 ft | 286 kts | 160° |
| 2026-05-05 01:27 | 21.26685 | 39.18555 | 7522 ft | 277 kts | 146° |
| 2026-05-05 01:27 | 21.25360 | 39.19953 | 7249 ft | 264 kts | 117° |
| 2026-05-05 01:27 | 21.24845 | 39.21794 | 6996 ft | 258 kts | 89° |
| 2026-05-05 01:27 | 21.25184 | 39.23638 | 6655 ft | 256 kts | 66° |
| 2026-05-05 01:28 | 21.25839 | 39.25417 | 6329 ft | 258 kts | 66° |
| 2026-05-05 01:28 | 21.26533 | 39.27158 | 5998 ft | 250 kts | 52° |
| 2026-05-05 01:28 | 21.27829 | 39.28295 | 5817 ft | 241 kts | 19° |
| 2026-05-05 01:28 | 21.29475 | 39.28528 | 5597 ft | 239 kts | 353° |
| 2026-05-05 01:29 | 21.31086 | 39.28169 | 5382 ft | 236 kts | 343° |
| 2026-05-05 01:29 | 21.32632 | 39.27604 | 5160 ft | 235 kts | 340° |
| 2026-05-05 01:29 | 21.34163 | 39.26997 | 4915 ft | 235 kts | 340° |
| 2026-05-05 01:29 | 21.35707 | 39.26389 | 4586 ft | 237 kts | 340° |
| 2026-05-05 01:30 | 21.37257 | 39.25776 | 4152 ft | 237 kts | 340° |
| 2026-05-05 01:30 | 21.38785 | 39.25171 | 4028 ft | 229 kts | 340° |
| 2026-05-05 01:30 | 21.40242 | 39.24595 | 4026 ft | 215 kts | 340° |
| 2026-05-05 01:30 | 21.41588 | 39.24061 | 4013 ft | 205 kts | 340° |
| 2026-05-05 01:31 | 21.42907 | 39.23539 | 4024 ft | 201 kts | 340° |
| 2026-05-05 01:31 | 21.44214 | 39.23021 | 4010 ft | 202 kts | 340° |
| 2026-05-05 01:31 | 21.45541 | 39.22496 | 4009 ft | 203 kts | 340° |
| 2026-05-05 01:31 | 21.46861 | 39.21974 | 3973 ft | 200 kts | 340° |
| 2026-05-05 01:32 | 21.48104 | 39.21482 | 3752 ft | 185 kts | 340° |
| 2026-05-05 01:32 | 21.49270 | 39.21019 | 3518 ft | 178 kts | 340° |
| 2026-05-05 01:32 | 21.50416 | 39.20565 | 3300 ft | 175 kts | 341° |
| 2026-05-05 01:32 | 21.51545 | 39.20118 | 3078 ft | 173 kts | 341° |
| 2026-05-05 01:33 | 21.52641 | 39.19682 | 2861 ft | 162 kts | 342° |
| 2026-05-05 01:33 | 21.53683 | 39.19270 | 2661 ft | 157 kts | 342° |
| 2026-05-05 01:33 | 21.54672 | 39.18878 | 2467 ft | 149 kts | 342° |
| 2026-05-05 01:33 | 21.55635 | 39.18496 | 2298 ft | 142 kts | 341° |
| 2026-05-05 01:34 | 21.56530 | 39.18142 | 2112 ft | 132 kts | 341° |
| 2026-05-05 01:34 | 21.57385 | 39.17803 | 1951 ft | 130 kts | 341° |
| 2026-05-05 01:34 | 21.58221 | 39.17471 | 1783 ft | 126 kts | 341° |
| 2026-05-05 01:34 | 21.59037 | 39.17147 | 1634 ft | 126 kts | 341° |
| 2026-05-05 01:35 | 21.59617 | 39.16917 | 1511 ft | 126 kts | 341° |
| 2026-05-05 01:35 | 21.60331 | 39.16634 | 1366 ft | 130 kts | 341° |
| 2026-05-05 01:35 | 21.61191 | 39.16294 | 1202 ft | 132 kts | 341° |
| 2026-05-05 01:35 | 21.62067 | 39.15942 | 1028 ft | 135 kts | 340° |
| 2026-05-05 01:36 | 21.62943 | 39.15599 | 873 ft | 134 kts | 340° |
| 2026-05-05 01:36 | 21.63619 | 39.15329 | 743 ft | 131 kts | 339° |
| 2026-05-05 01:36 | 21.64433 | 39.15000 | 519 ft | 120 kts | 340° |
| 2026-05-05 01:36 | 21.65301 | 39.14645 | 402 ft | 138 kts | 339° |
| 2026-05-05 01:37 | 21.66197 | 39.14287 | 274 ft | 140 kts | 341° |
| 2026-05-05 01:37 | 21.66584 | 39.14136 | 196 ft | 140 kts | 340° |
| 2026-05-05 01:37 | 21.67086 | 39.13941 | 57 ft | 138 kts | 341° |
| 2026-05-05 01:37 | 21.67883 | 39.13640 | 36 ft | 100 kts | 339° |
| 2026-05-05 01:38 | 21.68425 | 39.13418 | 30 ft | 70 kts | 340° |
| 2026-05-05 01:38 | 21.68813 | 39.13268 | 31 ft | 48 kts | 341° |
| 2026-05-05 01:38 | 21.68965 | 39.13209 | 33 ft | 23 kts | 345° |
| 2026-05-05 01:38 | 21.69095 | 39.13186 | 32 ft | 22 kts | 355° |
| 2026-05-05 01:39 | 21.69177 | 39.13193 | 31 ft | 7 kts | 11° |
| 2026-05-05 01:39 | 21.69242 | 39.13207 | 30 ft | 12 kts | 11° |
| 2026-05-05 01:39 | 21.69301 | 39.13234 | 30 ft | 5 kts | 63° |
| 2026-05-05 01:39 | 21.69299 | 39.13278 | 29 ft | 8 kts | 131° |
| 2026-05-05 01:40 | 21.69243 | 39.13312 | 29 ft | 5 kts | 160° |
| 2026-05-05 01:40 | 21.69189 | 39.13334 | 29 ft | 11 kts | 160° |
| 2026-05-05 01:40 | 21.69097 | 39.13370 | 30 ft | 17 kts | 160° |
| 2026-05-05 01:40 | 21.68972 | 39.13419 | 29 ft | 21 kts | 160° |
| 2026-05-05 01:41 | 21.68824 | 39.13478 | 29 ft | 25 kts | 159° |
| 2026-05-05 01:41 | 21.68658 | 39.13543 | 27 ft | 24 kts | 160° |
| 2026-05-05 01:41 | 21.68543 | 39.13588 | 26 ft | 17 kts | 160° |
| 2026-05-05 01:41 | 21.68422 | 39.13636 | 27 ft | 17 kts | 160° |
| 2026-05-05 01:42 | 21.68346 | 39.13667 | 27 ft | 3 kts | 144° |
| 2026-05-05 01:42 | 21.68328 | 39.13701 | 26 ft | 8 kts | 95° |
| 2026-05-05 01:42 | 21.68341 | 39.13763 | 31 ft | 7 kts | 70° |
| 2026-05-05 01:42 | 21.68363 | 39.13828 | 29 ft | 11 kts | 70° |
| 2026-05-05 01:43 | 21.68395 | 39.13922 | 29 ft | 15 kts | 70° |
| 2026-05-05 01:43 | 21.68435 | 39.14037 | 29 ft | 18 kts | 69° |
| 2026-05-05 01:43 | 21.68481 | 39.14169 | 27 ft | 18 kts | 70° |
| 2026-05-05 01:43 | 21.68518 | 39.14278 | 30 ft | 17 kts | 70° |
| 2026-05-05 01:44 | 21.68561 | 39.14403 | 32 ft | 19 kts | 69° |
| 2026-05-05 01:44 | 21.68610 | 39.14542 | 29 ft | 21 kts | 69° |
| 2026-05-05 01:44 | 21.68661 | 39.14690 | 30 ft | 20 kts | 70° |
| 2026-05-05 01:44 | 21.68708 | 39.14829 | 27 ft | 21 kts | 70° |
| 2026-05-05 01:45 | 21.68757 | 39.14970 | 30 ft | 16 kts | 70° |
| 2026-05-05 01:45 | 21.68791 | 39.15070 | 37 ft | 14 kts | 69° |
| 2026-05-05 01:45 | 21.68826 | 39.15175 | 38 ft | 17 kts | 70° |
| 2026-05-05 01:45 | 21.68868 | 39.15301 | 38 ft | 19 kts | 70° |
| 2026-05-05 01:46 | 21.68916 | 39.15433 | 39 ft | 20 kts | 69° |
| 2026-05-05 01:46 | 21.68968 | 39.15579 | 37 ft | 23 kts | 69° |
| 2026-05-05 01:46 | 21.68999 | 39.15670 | 27 ft | 13 kts | 70° |
| 2026-05-05 01:46 | 21.69036 | 39.15778 | 28 ft | 17 kts | 70° |
| 2026-05-05 01:47 | 21.69081 | 39.15911 | 26 ft | 20 kts | 69° |
| 2026-05-05 01:47 | 21.69133 | 39.16061 | 28 ft | 22 kts | 70° |
| 2026-05-05 01:47 | 21.69183 | 39.16204 | 25 ft | 18 kts | 69° |
| 2026-05-05 01:47 | 21.69229 | 39.16338 | 25 ft | 20 kts | 70° |
| 2026-05-05 01:48 | 21.69270 | 39.16459 | 23 ft | 16 kts | 70° |
| 2026-05-05 01:48 | 21.69311 | 39.16579 | 26 ft | 15 kts | 70° |
| 2026-05-05 01:48 | 21.69300 | 39.16663 | 28 ft | 10 kts | 143° |
| 2026-05-05 01:48 | 21.69225 | 39.16698 | 31 ft | 14 kts | 160° |
| 2026-05-05 01:49 | 21.69124 | 39.16736 | 34 ft | 17 kts | 160° |
| 2026-05-05 01:49 | 21.69006 | 39.16783 | 36 ft | 20 kts | 159° |
| 2026-05-05 01:49 | 21.68865 | 39.16839 | 35 ft | 24 kts | 160° |
| 2026-05-05 01:49 | 21.68715 | 39.16898 | 36 ft | 20 kts | 160° |
| 2026-05-05 01:50 | 21.68571 | 39.16954 | 33 ft | 18 kts | 159° |
| 2026-05-05 01:50 | 21.68497 | 39.16984 | 33 ft | 14 kts | 160° |
| 2026-05-05 01:50 | 21.68396 | 39.17023 | 35 ft | 17 kts | 160° |
| 2026-05-05 01:50 | 21.68267 | 39.17074 | 34 ft | 22 kts | 160° |
| 2026-05-05 01:51 | 21.68129 | 39.17129 | 35 ft | 22 kts | 160° |
| 2026-05-05 01:51 | 21.68010 | 39.17176 | 35 ft | 19 kts | 160° |
| 2026-05-05 01:51 | 21.67931 | 39.17207 | 35 ft | 7 kts | 160° |
| 2026-05-05 01:51 | 21.67892 | 39.17217 | 35 ft | 4 kts | 186° |
| 2026-05-05 01:52 | 21.67855 | 39.17197 | 35 ft | 8 kts | 229° |
| 2026-05-05 01:52 | 21.67826 | 39.17124 | 35 ft | 12 kts | 245° |
| 2026-05-05 01:52 | 21.67753 | 39.17092 | 35 ft | 13 kts | 168° |
| 2026-05-05 01:52 | 21.67699 | 39.17113 | 35 ft | 15 kts | 158° |
| 2026-05-05 01:53 | 21.67606 | 39.17153 | 35 ft | 17 kts | 159° |
| 2026-05-05 01:53 | 21.67597 | 39.17157 | 35 ft | 17 kts | 159° |
| 2026-05-05 01:53 | 21.67590 | 39.17159 | 35 ft | 17 kts | 159° |
| 2026-05-05 01:53 | 21.67498 | 39.17182 | 35 ft | 11 kts | 189° |
| 2026-05-05 01:54 | 21.67441 | 39.17158 | 35 ft | 3 kts | 217° |
| 2026-05-05 01:54 | 21.67408 | 39.17126 | 35 ft | 10 kts | 220° |
| 2026-05-05 01:54 | 21.67364 | 39.17087 | 35 ft | 11 kts | 220° |
| 2026-05-05 01:54 | 21.67309 | 39.17035 | 35 ft | 11 kts | 223° |
| 2026-05-05 01:55 | 21.67274 | 39.16994 | 35 ft | 2 kts | 234° |
| 2026-05-05 01:55 | 21.67264 | 39.16978 | 35 ft | 2 kts | 236° |
| 2026-05-05 01:55 | 21.67258 | 39.16969 | 35 ft | 0 kts | 237° |
| 2026-05-05 01:55 | 21.67251 | 39.16959 | 35 ft | 2 kts | 221° |
| 2026-05-05 01:56 | 21.67248 | 39.16956 | 35 ft | 0 kts | 217° |
| 2026-05-05 01:56 | 21.67243 | 39.16953 | 35 ft | 1 kts | 199° |
| 2026-05-05 01:56 | 21.67234 | 39.16951 | 35 ft | 2 kts | 174° |
| 2026-05-05 01:56 | 21.67221 | 39.16954 | 35 ft | 2 kts | 165° |
| 2026-05-05 01:57 | 21.67214 | 39.16956 | 35 ft | 2 kts | 159° |
| 2026-05-05 01:57 | 21.67201 | 39.16961 | 35 ft | 0 kts | 157° |
| 2026-05-05 01:57 | 21.67192 | 39.16966 | 35 ft | 1 kts | 156° |
| 2026-05-05 01:57 | 21.67183 | 39.16970 | 35 ft | 0 kts | 156° |
| 2026-05-05 01:58 | 21.67179 | 39.16972 | 35 ft | 1 kts | 156° |
| 2026-05-05 01:58 | 21.67178 | 39.16972 | 35 ft | 0 kts | 156° |
| 2026-05-05 01:58 | 21.67176 | 39.16974 | 35 ft | 1 kts | 155° |
| 2026-05-05 01:58 | 21.67166 | 39.16978 | 35 ft | 2 kts | 154° |
| 2026-05-05 01:59 | 21.67161 | 39.16981 | 35 ft | 0 kts | 154° |
| 2026-05-05 01:59 | 21.67160 | 39.16981 | 35 ft | 0 kts | 154° |
| 2026-05-05 02:04 | 21.67161 | 39.16981 | 35 ft | 0 kts | 155° |